Dorval, Canada
Current Conditions -  °F | °C
As of 5:00 PM on Wednesday 28 Jan 2015 (Local Time) from CYUL Reporting Station
Few Clouds Few Clouds  
Wind Chill:   Ceiling: Unl
Heat Index: 14°   Visibility: 30mi
Dew Point: -2°   Wind: 9mph
Humidity: 49%   Direction: 220°SW
Pressure: 30.23"   Gusts: NA
Location:  45.45°N, 73.75°W
Report Text: CYUL 282200Z 22008KT 30SM FEW160 M10/M19 A3023 RMK AC1 AC TR SLP240
Loading
Personal Weather Stations






























Interactive Weather Map New forecast layout! Learn more

10-Day Weather Forecast

Advertisements
Track Severe Weather on mobile